createdAt,value
2023-05-01T00:01:42.381Z,3.47
2023-05-01T00:04:10.331Z,2.53
2023-05-01T00:06:38.348Z,2.60
2023-05-01T00:09:07.496Z,2.87
2023-05-01T00:11:37.329Z,3.27
2023-05-01T00:14:05.163Z,3.03
2023-05-01T00:16:33.008Z,3.77
2023-05-01T00:19:00.915Z,3.83
2023-05-01T00:21:29.243Z,5.13
2023-05-01T00:23:57.370Z,3.77
2023-05-01T00:26:30.412Z,2.80
2023-05-01T00:28:59.029Z,3.30
2023-05-01T00:31:26.831Z,3.27
2023-05-01T00:33:54.816Z,2.80
2023-05-01T00:36:22.588Z,3.13
2023-05-01T00:38:50.342Z,3.07
2023-05-01T00:41:18.088Z,3.37
2023-05-01T00:43:47.257Z,3.30
2023-05-01T00:46:15.233Z,3.50
2023-05-01T00:48:43.061Z,2.87
2023-05-01T00:51:10.898Z,3.70
2023-05-01T00:53:39.092Z,4.17
2023-05-01T00:56:08.658Z,3.27
2023-05-01T00:58:37.115Z,4.23
2023-05-01T01:01:06.454Z,4.97
2023-05-01T01:03:34.178Z,4.23
2023-05-01T01:06:10.504Z,4.47
2023-05-01T01:08:43.239Z,4.23
2023-05-01T01:11:21.624Z,4.60
2023-05-01T01:13:57.209Z,4.03
2023-05-01T01:16:34.432Z,3.73
2023-05-01T01:19:15.897Z,4.83
2023-05-01T01:21:47.807Z,4.43
2023-05-01T01:24:44.627Z,3.00
2023-05-01T01:27:59.389Z,2.40
2023-05-01T01:31:05.750Z,3.90
2023-05-01T01:34:01.577Z,3.83
2023-05-01T01:36:42.031Z,3.97
2023-05-01T01:39:22.043Z,2.90
2023-05-01T01:41:52.835Z,3.63
2023-05-01T01:44:29.626Z,3.00
2023-05-01T01:46:57.981Z,4.43
2023-05-01T01:49:30.354Z,2.50
2023-05-01T01:52:00.235Z,5.00
2023-05-01T01:54:33.069Z,3.27
2023-05-01T01:57:03.614Z,3.97
2023-05-01T01:59:34.744Z,3.53
2023-05-01T02:02:05.112Z,3.33
2023-05-01T02:04:35.998Z,3.10
2023-05-01T02:07:05.493Z,2.87
2023-05-01T02:09:35.493Z,2.80
2023-05-01T02:12:06.971Z,3.07
2023-05-01T02:14:35.132Z,2.77
2023-05-01T02:17:03.668Z,3.23
2023-05-01T02:19:35.507Z,4.37
2023-05-01T02:22:05.343Z,4.33
2023-05-01T02:24:34.856Z,3.60
2023-05-01T02:27:09.585Z,3.10
2023-05-01T02:29:37.817Z,3.53
2023-05-01T02:32:06.027Z,3.13
2023-05-01T02:34:36.871Z,2.97
2023-05-01T02:37:07.147Z,3.07
2023-05-01T02:39:36.062Z,2.40
2023-05-01T02:42:05.036Z,2.63
2023-05-01T02:44:39.901Z,2.60
2023-05-01T02:47:10.139Z,2.60
2023-05-01T02:49:40.850Z,2.57
2023-05-01T02:52:09.332Z,2.40
2023-05-01T02:54:37.220Z,2.57
2023-05-01T02:57:05.999Z,3.13
2023-05-01T02:59:33.912Z,3.30
2023-05-01T03:02:02.041Z,2.37
2023-05-01T03:04:30.063Z,3.87
2023-05-01T03:06:59.211Z,3.43
2023-05-01T03:09:27.479Z,5.07
2023-05-01T03:11:55.605Z,5.00
2023-05-01T03:14:23.655Z,4.07
2023-05-01T03:16:51.428Z,4.03
2023-05-01T03:19:19.203Z,4.90
2023-05-01T03:21:46.954Z,5.03
2023-05-01T03:24:16.032Z,4.70
2023-05-01T03:26:44.371Z,4.73
2023-05-01T03:29:13.406Z,4.37
2023-05-01T03:31:41.635Z,3.80
2023-05-01T03:34:11.280Z,3.67
2023-05-01T03:36:39.413Z,3.53
2023-05-01T03:39:08.633Z,3.60
2023-05-01T03:41:59.089Z,2.97
2023-05-01T03:44:30.284Z,3.67
2023-05-01T03:46:58.130Z,3.53
2023-05-01T03:49:29.440Z,3.50
2023-05-01T03:51:57.649Z,3.23
2023-05-01T03:54:25.940Z,3.07
2023-05-01T03:57:15.726Z,2.93
2023-05-01T03:59:44.815Z,3.27
2023-05-01T04:02:13.078Z,2.70
2023-05-01T04:04:41.126Z,2.50
2023-05-01T04:07:09.375Z,2.73
2023-05-01T04:09:37.380Z,3.57
2023-05-01T04:12:05.817Z,2.70
2023-05-01T04:14:34.982Z,3.30
2023-05-01T04:17:03.655Z,2.70
2023-05-01T04:19:34.915Z,3.73
2023-05-01T04:22:03.789Z,2.57
2023-05-01T04:24:32.805Z,2.40
2023-05-01T04:27:00.771Z,2.27
2023-05-01T04:29:28.499Z,2.17
2023-05-01T04:31:58.635Z,2.27
2023-05-01T04:34:29.345Z,2.47
2023-05-01T04:36:57.669Z,2.40
2023-05-01T04:39:25.572Z,2.40
2023-05-01T04:41:54.042Z,2.50
2023-05-01T04:44:22.106Z,2.60
2023-05-01T04:46:50.019Z,2.00
2023-05-01T04:49:19.098Z,2.97
2023-05-01T04:51:47.234Z,2.10
2023-05-01T04:54:16.783Z,2.60
2023-05-01T04:56:44.975Z,2.40
2023-05-01T04:59:12.964Z,3.07
2023-05-01T05:01:41.101Z,3.10
2023-05-01T05:04:09.511Z,4.50
2023-05-01T05:06:38.680Z,3.83
2023-05-01T05:09:11.255Z,3.60
2023-05-01T05:11:38.990Z,4.60
2023-05-01T05:14:11.951Z,4.97
2023-05-01T05:16:39.941Z,4.23
2023-05-01T05:19:07.752Z,3.97
2023-05-01T05:21:40.305Z,4.37
2023-05-01T05:24:08.859Z,5.80
2023-05-01T05:26:36.722Z,4.23
2023-05-01T05:29:04.908Z,4.27
2023-05-01T05:31:33.227Z,4.83
2023-05-01T05:34:01.075Z,5.77
2023-05-01T05:36:30.112Z,8.83
2023-05-01T05:39:00.399Z,7.87
2023-05-01T05:41:28.128Z,6.27
2023-05-01T05:43:59.895Z,6.30
2023-05-01T05:46:28.294Z,6.13
2023-05-01T05:48:56.370Z,6.77
2023-05-01T05:51:24.332Z,7.43
2023-05-01T05:53:52.364Z,5.50
2023-05-01T05:56:21.570Z,5.87
2023-05-01T05:58:49.317Z,5.63
2023-05-01T06:01:17.815Z,5.70
2023-05-01T06:03:45.943Z,5.17
2023-05-01T06:06:13.815Z,5.67
2023-05-01T06:08:41.581Z,4.83
2023-05-01T06:11:12.386Z,4.77
2023-05-01T06:13:41.461Z,5.90
2023-05-01T06:16:09.444Z,7.73
2023-05-01T06:18:37.489Z,4.00
2023-05-01T06:21:05.603Z,6.20
2023-05-01T06:23:34.763Z,7.37
2023-05-01T06:26:21.792Z,6.33
2023-05-01T06:28:51.017Z,5.23
2023-05-01T06:31:19.042Z,5.13
2023-05-01T06:33:51.536Z,6.40
2023-05-01T06:36:54.530Z,8.37
2023-05-01T06:39:23.841Z,9.73
2023-05-01T06:41:51.532Z,7.90
2023-05-01T06:44:32.783Z,6.13
2023-05-01T06:47:02.766Z,6.30
2023-05-01T06:49:30.520Z,8.43
2023-05-01T06:51:58.306Z,6.73
2023-05-01T06:54:26.523Z,11.53
2023-05-01T06:56:54.530Z,7.17
2023-05-01T06:59:22.305Z,11.10
2023-05-01T07:01:51.998Z,11.70
2023-05-01T07:04:19.849Z,10.30
2023-05-01T07:06:47.682Z,14.97
2023-05-01T07:09:15.479Z,12.37
2023-05-01T07:11:43.524Z,12.20
2023-05-01T07:14:11.217Z,9.73
2023-05-01T07:16:38.969Z,13.93
2023-05-01T07:19:08.065Z,17.73
2023-05-01T07:21:36.073Z,15.33
2023-05-01T07:24:03.829Z,14.97
2023-05-01T07:26:31.583Z,17.67
2023-05-01T07:28:59.487Z,16.40
2023-05-01T07:31:27.215Z,18.23
2023-05-01T07:33:54.954Z,17.57
2023-05-01T07:36:24.569Z,22.00
2023-05-01T07:38:52.434Z,20.03
2023-05-01T07:41:20.121Z,18.83
2023-05-01T07:43:47.847Z,20.53
2023-05-01T07:46:15.768Z,18.70
2023-05-01T07:48:44.382Z,20.30
2023-05-01T07:51:12.082Z,19.87
2023-05-01T07:53:42.372Z,20.13
2023-05-01T07:56:10.648Z,19.93
2023-05-01T07:58:41.008Z,24.10
2023-05-01T08:01:09.191Z,21.77
2023-05-01T08:03:37.001Z,22.53
2023-05-01T08:06:05.238Z,21.80
2023-05-01T08:08:33.282Z,17.73
2023-05-01T08:11:02.434Z,19.13
2023-05-01T08:13:30.166Z,21.23
2023-05-01T08:16:02.580Z,21.70
2023-05-01T08:18:30.391Z,20.67
2023-05-01T08:20:58.144Z,21.20
2023-05-01T08:23:26.303Z,18.30
2023-05-01T08:25:54.210Z,21.73
2023-05-01T08:28:24.584Z,18.30
2023-05-01T08:30:52.342Z,17.00
2023-05-01T08:33:20.133Z,17.00
2023-05-01T08:35:48.559Z,16.47
2023-05-01T08:38:16.898Z,18.87
2023-05-01T08:40:49.851Z,15.93
2023-05-01T08:43:18.328Z,20.53
2023-05-01T08:45:48.683Z,19.60
2023-05-01T08:48:18.560Z,18.40
2023-05-01T08:50:48.090Z,17.70
2023-05-01T08:53:17.271Z,20.93
2023-05-01T08:55:46.850Z,15.70
2023-05-01T08:58:15.709Z,17.53
2023-05-01T09:00:44.565Z,17.43
2023-05-01T09:03:15.025Z,16.07
2023-05-01T09:05:42.857Z,20.83
2023-05-01T09:08:10.891Z,16.43
2023-05-01T09:10:43.423Z,20.23
2023-05-01T09:13:11.263Z,17.73
2023-05-01T09:15:39.132Z,17.27
2023-05-01T09:18:08.258Z,17.20
2023-05-01T09:20:38.409Z,17.00
2023-05-01T09:23:06.385Z,16.80
2023-05-01T09:25:34.141Z,14.87
2023-05-01T09:28:01.925Z,15.83
2023-05-01T09:30:34.219Z,15.97
2023-05-01T09:33:09.638Z,12.50
2023-05-01T09:35:52.717Z,17.07
2023-05-01T09:38:22.086Z,12.10
2023-05-01T09:40:50.437Z,14.30
2023-05-01T09:43:27.074Z,14.30
2023-05-01T09:46:03.729Z,11.77
2023-05-01T09:48:34.827Z,14.40
2023-05-01T09:51:21.801Z,12.47
2023-05-01T09:53:50.171Z,14.40
2023-05-01T09:56:18.405Z,13.63
2023-05-01T09:58:46.730Z,15.47
2023-05-01T10:01:15.232Z,12.10
2023-05-01T10:03:45.455Z,12.33
2023-05-01T10:06:29.123Z,11.50
2023-05-01T10:08:56.967Z,14.37
2023-05-01T10:11:26.636Z,11.60
2023-05-01T10:14:07.575Z,12.90
2023-05-01T10:16:36.887Z,13.50
2023-05-01T10:19:05.832Z,10.23
2023-05-01T10:21:35.335Z,12.00
2023-05-01T10:24:05.717Z,10.87
2023-05-01T10:26:34.578Z,15.37
2023-05-01T10:29:03.137Z,11.03
2023-05-01T10:31:32.975Z,11.67
2023-05-01T10:34:01.918Z,12.10
2023-05-01T10:36:35.368Z,9.43
2023-05-01T10:39:04.670Z,10.83
2023-05-01T10:42:08.629Z,9.03
2023-05-01T10:44:38.336Z,14.63
2023-05-01T10:47:43.804Z,12.77
2023-05-01T10:50:12.788Z,11.43
2023-05-01T10:53:18.136Z,11.90
2023-05-01T10:55:49.347Z,9.13
2023-05-01T10:58:51.759Z,7.50
2023-05-01T11:01:34.277Z,10.03
2023-05-01T11:04:05.197Z,9.10
2023-05-01T11:06:33.940Z,8.90
2023-05-01T11:09:02.638Z,7.43
2023-05-01T11:11:52.927Z,9.07
2023-05-01T11:14:20.658Z,9.60
2023-05-01T11:16:49.719Z,8.80
2023-05-01T11:19:48.687Z,7.73
2023-05-01T11:22:16.501Z,7.67
2023-05-01T11:24:44.770Z,7.90
2023-05-01T11:27:18.259Z,7.40
2023-05-01T11:29:49.591Z,7.77
2023-05-01T11:32:24.785Z,9.50
2023-05-01T11:34:53.670Z,8.10
2023-05-01T11:37:22.017Z,6.57
2023-05-01T11:39:53.752Z,5.60
2023-05-01T11:42:23.688Z,6.40
2023-05-01T11:45:08.146Z,8.10
2023-05-01T11:47:36.352Z,7.43
2023-05-01T11:50:04.302Z,7.40
2023-05-01T11:52:42.747Z,5.60
2023-05-01T11:55:11.492Z,5.90
2023-05-01T11:57:51.749Z,6.37
2023-05-01T12:00:28.405Z,9.10
2023-05-01T12:02:58.449Z,6.77
2023-05-01T12:05:26.797Z,5.63
2023-05-01T12:08:08.725Z,6.83
2023-05-01T12:10:37.087Z,3.90
2023-05-01T12:13:07.226Z,3.37
2023-05-01T12:15:37.312Z,3.57
2023-05-01T12:18:05.634Z,5.33
2023-05-01T12:20:38.602Z,5.80
2023-05-01T12:23:07.468Z,5.70
2023-05-01T12:25:35.670Z,6.40
2023-05-01T12:28:10.276Z,4.80
2023-05-01T12:30:38.369Z,5.07
2023-05-01T12:33:11.613Z,4.63
2023-05-01T12:35:40.726Z,3.73
2023-05-01T12:38:13.766Z,4.13
2023-05-01T12:40:42.383Z,3.53
2023-05-01T12:43:11.516Z,2.67
2023-05-01T12:45:42.297Z,4.33
2023-05-01T12:48:15.001Z,3.07
2023-05-01T12:50:44.765Z,4.63
2023-05-01T12:53:13.837Z,6.63
2023-05-01T12:55:46.990Z,5.40
2023-05-01T12:58:16.820Z,3.88
2023-05-01T13:00:49.375Z,4.53
2023-05-01T13:03:23.496Z,5.50
2023-05-01T13:05:56.677Z,5.70
2023-05-01T13:08:32.641Z,5.03
2023-05-01T13:11:01.757Z,4.95
2023-05-01T13:13:35.252Z,5.00
2023-05-01T13:16:09.070Z,4.25
2023-05-01T13:18:45.192Z,5.03
2023-05-01T13:21:16.094Z,4.45
2023-05-01T13:23:52.828Z,6.03
2023-05-01T13:26:27.623Z,4.30
2023-05-01T13:28:57.235Z,3.90
2023-05-01T13:31:25.165Z,5.38
2023-05-01T13:33:54.250Z,7.57
2023-05-01T13:36:26.230Z,4.47
2023-05-01T13:38:56.803Z,5.40
2023-05-01T13:41:26.579Z,4.45
2023-05-01T13:43:57.768Z,4.75
2023-05-01T13:46:28.029Z,4.93
2023-05-01T13:48:56.380Z,5.13
2023-05-01T13:51:25.695Z,4.30
2023-05-01T13:53:54.549Z,3.53
2023-05-01T13:56:22.604Z,4.47
2023-05-01T13:58:51.162Z,6.25
2023-05-01T14:01:22.513Z,4.30
2023-05-01T14:03:51.024Z,5.87
2023-05-01T14:06:20.758Z,3.78
2023-05-01T14:08:49.978Z,3.90
2023-05-01T14:11:20.121Z,5.22
2023-05-01T14:13:49.686Z,4.45
2023-05-01T14:16:26.324Z,5.20
2023-05-01T14:18:57.064Z,4.10
2023-05-01T14:21:27.365Z,4.60
2023-05-01T14:23:56.600Z,4.07
2023-05-01T14:26:24.976Z,4.43
2023-05-01T14:28:53.216Z,4.37
2023-05-01T14:31:28.534Z,3.33
2023-05-01T14:33:58.600Z,4.30
2023-05-01T14:36:28.408Z,3.53
2023-05-01T14:38:57.620Z,4.30
2023-05-01T14:41:25.690Z,3.30
2023-05-01T14:43:54.224Z,3.67
2023-05-01T14:46:29.955Z,4.22
2023-05-01T14:48:58.510Z,3.63
2023-05-01T14:51:27.315Z,3.47
2023-05-01T14:53:55.471Z,4.23
2023-05-01T14:56:23.795Z,3.70
2023-05-01T14:58:51.542Z,5.03
2023-05-01T15:01:20.712Z,6.03
2023-05-01T15:03:50.071Z,14.00
2023-05-01T15:06:18.092Z,12.17
2023-05-01T15:08:46.838Z,6.73
2023-05-01T15:11:15.279Z,6.90
2023-05-01T15:13:44.320Z,5.50
2023-05-01T15:16:12.282Z,4.40
2023-05-01T15:18:40.592Z,4.77
2023-05-01T15:21:09.667Z,3.00
2023-05-01T15:23:38.069Z,3.40
2023-05-01T15:26:05.791Z,3.20
2023-05-01T15:28:33.593Z,4.33
2023-05-01T15:31:01.971Z,6.10
2023-05-01T15:33:29.770Z,3.87
2023-05-01T15:35:57.523Z,4.70
2023-05-01T15:38:28.277Z,4.30
2023-05-01T15:40:56.313Z,4.97
2023-05-01T15:43:24.398Z,5.83
2023-05-01T15:45:52.973Z,5.50
2023-05-01T15:48:20.872Z,5.27
2023-05-01T15:50:49.284Z,5.17
2023-05-01T15:53:17.615Z,3.83
2023-05-01T15:55:46.645Z,5.00
2023-05-01T15:58:15.963Z,6.00
2023-05-01T16:00:44.461Z,5.17
2023-05-01T16:03:12.759Z,7.07
2023-05-01T16:05:40.727Z,5.20
2023-05-01T16:08:08.626Z,4.10
2023-05-01T16:10:37.492Z,6.43
2023-05-01T16:13:06.838Z,4.03
2023-05-01T16:15:35.505Z,4.47
2023-05-01T16:18:04.958Z,3.63
2023-05-01T16:20:36.603Z,4.40
2023-05-01T16:23:04.434Z,3.67
2023-05-01T16:25:32.330Z,4.60
2023-05-01T16:28:00.535Z,3.03
2023-05-01T16:30:29.731Z,3.47
2023-05-01T16:32:57.533Z,4.53
2023-05-01T16:35:28.739Z,4.87
2023-05-01T16:37:56.934Z,4.83
2023-05-01T16:40:24.959Z,4.87
2023-05-01T16:42:53.462Z,5.57
2023-05-01T16:45:22.003Z,3.47
2023-05-01T16:47:51.687Z,3.60
2023-05-01T16:50:22.286Z,4.70
2023-05-01T16:52:50.350Z,2.67
2023-05-01T16:55:18.663Z,3.80
2023-05-01T16:57:46.415Z,3.70
2023-05-01T17:00:15.989Z,4.10
2023-05-01T17:02:44.885Z,4.07
2023-05-01T17:05:14.116Z,5.43
2023-05-01T17:07:41.960Z,5.07
2023-05-01T17:10:10.800Z,4.33
2023-05-01T17:12:38.548Z,3.73
2023-05-01T17:15:07.430Z,3.13
2023-05-01T17:17:36.692Z,3.73
2023-05-01T17:20:04.766Z,4.03
2023-05-01T17:22:33.965Z,2.93
2023-05-01T17:25:03.030Z,6.57
2023-05-01T17:27:31.306Z,6.07
2023-05-01T17:29:59.424Z,5.50
2023-05-01T17:32:36.254Z,4.50
2023-05-01T17:35:05.629Z,5.27
2023-05-01T17:37:34.749Z,5.90
2023-05-01T17:40:04.072Z,6.07
2023-05-01T17:42:31.922Z,7.97
2023-05-01T17:44:59.739Z,6.60
2023-05-01T17:47:27.632Z,6.40
2023-05-01T17:49:55.523Z,4.87
2023-05-01T17:52:23.477Z,3.80
2023-05-01T17:54:52.834Z,3.23
2023-05-01T17:57:20.773Z,3.10
2023-05-01T17:59:48.572Z,3.10
2023-05-01T18:02:16.379Z,1.77
2023-05-01T18:04:44.206Z,2.77
2023-05-01T18:07:12.023Z,2.43
2023-05-01T18:09:39.785Z,2.37
2023-05-01T18:12:10.278Z,2.10
2023-05-01T18:14:38.781Z,1.70
2023-05-01T18:17:06.583Z,1.83
2023-05-01T18:19:34.512Z,1.90
2023-05-01T18:22:04.137Z,1.80
2023-05-01T18:24:32.261Z,2.40
2023-05-01T18:27:00.604Z,2.80
2023-05-01T18:29:29.775Z,1.90
2023-05-01T18:31:57.858Z,3.23
2023-05-01T18:34:25.763Z,2.00
2023-05-01T18:36:54.657Z,2.13
2023-05-01T18:39:23.001Z,1.90
2023-05-01T18:41:51.244Z,2.70
2023-05-01T18:44:19.179Z,2.23
2023-05-01T18:46:48.456Z,2.07
2023-05-01T18:49:21.263Z,1.80
2023-05-01T18:51:49.076Z,2.13
2023-05-01T18:54:17.156Z,2.83
2023-05-01T18:56:45.225Z,2.10
2023-05-01T18:59:12.963Z,2.10
2023-05-01T19:01:40.753Z,2.03
2023-05-01T19:04:10.278Z,2.10
2023-05-01T19:06:38.884Z,2.33
2023-05-01T19:09:06.718Z,2.17
2023-05-01T19:11:34.525Z,2.07
2023-05-01T19:14:02.298Z,2.30
2023-05-01T19:16:30.708Z,3.07
2023-05-01T19:18:58.521Z,2.47
2023-05-01T19:21:27.960Z,3.10
2023-05-01T19:23:56.468Z,2.40
2023-05-01T19:26:24.257Z,2.43
2023-05-01T19:28:52.091Z,2.00
2023-05-01T19:31:19.963Z,2.00
2023-05-01T19:33:48.430Z,2.27
2023-05-01T19:36:16.159Z,1.70
2023-05-01T19:38:45.497Z,2.07
2023-05-01T19:41:14.320Z,2.07
2023-05-01T19:43:42.098Z,1.60
2023-05-01T19:46:09.946Z,1.80
2023-05-01T19:48:37.726Z,2.03
2023-05-01T19:51:05.461Z,1.97
2023-05-01T19:53:33.253Z,3.47
2023-05-01T19:56:02.324Z,2.90
2023-05-01T19:58:30.040Z,1.60
2023-05-01T20:01:02.141Z,1.47
2023-05-01T20:03:29.943Z,1.47
2023-05-01T20:05:57.836Z,1.60
2023-05-01T20:08:25.640Z,1.30
2023-05-01T20:10:53.505Z,1.57
2023-05-01T20:13:22.736Z,1.50
2023-05-01T20:15:51.452Z,1.80
2023-05-01T20:18:19.254Z,1.40
2023-05-01T20:20:46.993Z,1.73
2023-05-01T20:23:16.021Z,1.50
2023-05-01T20:25:46.360Z,1.57
2023-05-01T20:28:15.004Z,1.50
2023-05-01T20:30:45.545Z,1.40
2023-05-01T20:33:14.022Z,1.60
2023-05-01T20:35:41.930Z,1.37
2023-05-01T20:38:09.675Z,1.50
2023-05-01T20:40:40.027Z,1.63
2023-05-01T20:43:08.219Z,2.00
2023-05-01T20:45:36.125Z,1.87
2023-05-01T20:48:05.395Z,1.40
2023-05-01T20:50:33.185Z,1.37
2023-05-01T20:53:00.969Z,1.63
2023-05-01T20:55:29.920Z,1.93
2023-05-01T20:57:57.687Z,1.63
2023-05-01T21:00:25.439Z,2.03
2023-05-01T21:02:53.350Z,2.00
2023-05-01T21:05:22.674Z,2.33
2023-05-01T21:07:50.425Z,1.80
2023-05-01T21:10:18.135Z,2.40
2023-05-01T21:12:45.984Z,2.10
2023-05-01T21:15:13.704Z,2.43
2023-05-01T21:17:43.390Z,2.77
2023-05-01T21:20:15.550Z,2.33
2023-05-01T21:22:48.052Z,2.83
2023-05-01T21:25:17.099Z,2.40
2023-05-01T21:27:44.837Z,2.27
2023-05-01T21:30:16.867Z,2.17
2023-05-01T21:32:45.107Z,1.77
2023-05-01T21:35:17.247Z,2.10
2023-05-01T21:37:47.895Z,2.70
2023-05-01T21:40:15.824Z,3.13
2023-05-01T21:42:43.621Z,2.63
2023-05-01T21:45:13.593Z,1.80
2023-05-01T21:47:43.729Z,1.67
2023-05-01T21:50:13.320Z,2.03
2023-05-01T21:52:41.192Z,2.00
2023-05-01T21:55:11.806Z,2.33
2023-05-01T21:57:40.758Z,1.70
2023-05-01T22:00:10.240Z,2.77
2023-05-01T22:02:42.441Z,1.73
2023-05-01T22:05:11.266Z,1.87
2023-05-01T22:07:40.360Z,1.70
2023-05-01T22:10:11.788Z,1.80
2023-05-01T22:12:39.859Z,2.63
2023-05-01T22:15:08.989Z,2.30
2023-05-01T22:17:37.100Z,2.10
2023-05-01T22:20:07.172Z,2.40
2023-05-01T22:22:35.390Z,2.47
2023-05-01T22:25:03.935Z,2.50
2023-05-01T22:27:33.486Z,2.83
2023-05-01T22:30:01.640Z,2.57
2023-05-01T22:32:29.720Z,2.40
2023-05-01T22:34:57.481Z,2.57
2023-05-01T22:37:25.720Z,2.90
2023-05-01T22:39:53.606Z,2.87
2023-05-01T22:42:21.605Z,2.13
2023-05-01T22:44:50.654Z,2.40
2023-05-01T22:47:18.591Z,2.50
2023-05-01T22:49:46.293Z,2.70
2023-05-01T22:52:14.004Z,2.23
2023-05-01T22:54:41.756Z,2.20
2023-05-01T22:57:10.338Z,3.00
2023-05-01T22:59:39.663Z,2.73
2023-05-01T23:02:09.127Z,2.80
2023-05-01T23:04:37.144Z,2.60
2023-05-01T23:07:05.115Z,2.17
2023-05-01T23:09:33.096Z,2.83
2023-05-01T23:12:01.039Z,2.73
2023-05-01T23:14:28.915Z,3.10
2023-05-01T23:16:56.632Z,2.27
2023-05-01T23:19:26.809Z,2.37
2023-05-01T23:22:08.415Z,2.67
2023-05-01T23:24:43.067Z,2.23
2023-05-01T23:27:11.483Z,2.70
2023-05-01T23:29:40.952Z,2.47
2023-05-01T23:32:10.236Z,1.87
2023-05-01T23:34:41.189Z,2.10
2023-05-01T23:37:09.017Z,3.07
2023-05-01T23:39:36.740Z,7.13
2023-05-01T23:42:04.635Z,4.30
2023-05-01T23:44:32.401Z,4.63
2023-05-01T23:47:00.309Z,5.40
2023-05-01T23:49:28.547Z,3.50
2023-05-01T23:51:58.048Z,3.20
2023-05-01T23:54:26.002Z,3.10
2023-05-01T23:56:54.423Z,2.50
2023-05-01T23:59:22.159Z,2.87
